Ingleside, Texas
Current Conditions -  °F | °C
As of 3:35 PM on Friday 19 Dec 2014 (Local Time) from KTFP Reporting Station
Overcast Overcast  
Wind Chill: 58°   Ceiling: 900
Heat Index: 58°   Visibility: 10mi
Dew Point: 54°   Wind: 16mph
Humidity: 87%   Direction: 360°N
Pressure: 30"   Gusts: NA
Location:  27.88°N, 97.21°W
Report Text: KTFP 192135Z AUTO 36014KT 10SM OVC009 14/12 A3000 RMK AO2 T01420120
Loading
Personal Weather Stations






























Interactive Weather Map New forecast layout! Learn more

10-Day Weather Forecast

Advertisements
Track Severe Weather on mobile